This is the latest recevied weather packets stored in our database for station/object OH2CHY-10. If no packets are shown the sender has not sent any weather packets the latest 10 day(s).
| Time | Temp. | Humidity | Pressure | Rain* | Wind** | Luminosity | Snow |
|---|---|---|---|---|---|---|---|
| 1778231685 | 15.56° C | 23% | 1026 hPa | - | - | - | - |
| 1778230785 | 16.11° C | 25% | 1026.2 hPa | - | - | - | - |
| 1778229885 | 14.44° C | 26% | 1026.3 hPa | - | - | - | - |
| 1778228985 | 15° C | 28% | 1026.2 hPa | - | - | - | - |
| 1778228085 | 13.89° C | 29% | 1026.2 hPa | - | - | - | - |
| 1778227185 | 13.89° C | 28% | 1026.1 hPa | - | - | - | - |
| 1778226285 | 13.33° C | 30% | 1026 hPa | - | - | - | - |
| 1778225385 | 12.22° C | 31% | 1026 hPa | - | - | - | - |
| 1778224485 | 12.22° C | 31% | 1025.8 hPa | - | - | - | - |
| 1778223584 | 11.67° C | 32% | 1025.7 hPa | - | - | - | - |
| 1778222684 | 11.67° C | 35% | 1025.6 hPa | - | - | - | - |
| 1778221784 | 10.56° C | 36% | 1025.4 hPa | - | - | - | - |
| 1778220884 | 9.44° C | 37% | 1025.3 hPa | - | - | - | - |
| 1778219984 | 9.44° C | 38% | 1025.2 hPa | - | - | - | - |
| 1778219084 | 8.89° C | 39% | 1025.1 hPa | - | - | - | - |
| 1778218184 | 11.11° C | 35% | 1024.8 hPa | - | - | - | - |
| 1778217284 | 13.33° C | 32% | 1024.7 hPa | - | - | - | - |
| 1778216383 | 15° C | 30% | 1024.5 hPa | - | - | - | - |
| 1778215483 | 16.11° C | 28% | 1024.4 hPa | - | - | - | - |
| 1778214583 | 20° C | 24% | 1024.2 hPa | - | - | - | - |
| 1778213683 | 21.67° C | 23% | 1024.1 hPa | - | - | - | - |
| 1778212783 | 17.78° C | 27% | 1024 hPa | - | - | - | - |
| 1778211883 | 16.11° C | 28% | 1023.8 hPa | - | - | - | - |
| 1778210983 | 17.78° C | 26% | 1023.6 hPa | - | - | - | - |
| 1778210083 | 17.22° C | 28% | 1023.3 hPa | - | - | - | - |
* Rain since midnight (hover to see other rain measurements)
** Current wind speed in m/s (hover to see current wind gust speed)